Time;durP1;ratioP1;P1;durP2;ratioP2;P2;SDS_P1;SDS_P2;PMS_P1;PMS_P2;Temp;Humidity;BMP_temperature;BMP_pressure;BME280_temperature;BME280_humidity;BME280_pressure;Samples;Min_cycle;Max_cycle;Signal;HPM_P1;HPM_P2
2021/04/02 00:00:44;;;;;;;;;;;;;;;5.10;70.00;101215.63;1622417;87;22472;-78
2021/04/02 00:03:14;;;;;;;2.55;2.27;;;;;;;5.13;70.23;101219.95;1618803;86;20327;-78
2021/04/02 00:05:41;;;;;;;3.80;2.55;;;;;;;5.12;70.11;101221.65;1615835;87;21280;-78
2021/04/02 00:08:08;;;;;;;2.52;2.33;;;;;;;5.10;70.01;101223.74;1607521;87;21268;-78
2021/04/02 00:10:51;;;;;;;3.02;2.77;;;;;;;5.08;70.10;101226.70;1627061;86;21248;-78
2021/04/02 00:13:23;;;;;;;3.62;2.45;;;;;;;5.06;70.16;101226.67;1618189;87;21185;-78
2021/04/02 00:15:51;;;;;;;3.90;2.90;;;;;;;5.06;70.14;101229.23;1608410;87;21303;-78
2021/04/02 00:18:23;;;;;;;4.47;3.77;;;;;;;5.07;70.09;101237.79;1621509;87;21180;-78
2021/04/02 00:20:50;;;;;;;3.27;3.00;;;;;;;5.03;70.12;101242.00;1627241;87;21201;-78
2021/04/02 00:23:17;;;;;;;4.15;3.30;;;;;;;4.99;70.04;101241.09;1631225;87;21186;-78
2021/04/02 00:25:44;;;;;;;4.00;3.60;;;;;;;4.98;70.01;101244.91;1620381;87;21177;-78
2021/04/02 00:28:29;;;;;;;4.20;3.83;;;;;;;4.93;69.93;101240.12;1618458;86;21482;-78
2021/04/02 00:30:57;;;;;;;3.42;3.02;;;;;;;4.87;69.97;101248.98;1610362;87;21218;-78
2021/04/02 00:33:27;;;;;;;3.83;3.52;;;;;;;4.82;69.88;101243.78;1626641;86;21171;-78
2021/04/02 00:35:56;;;;;;;3.52;3.22;;;;;;;4.78;69.89;101248.41;1617948;87;21170;-78
2021/04/02 00:38:23;;;;;;;3.10;2.90;;;;;;;4.73;69.83;101251.30;1615837;86;21535;-78
2021/04/02 00:40:57;;;;;;;3.95;3.62;;;;;;;4.69;69.74;101249.94;1610868;86;609389;-78
2021/04/02 00:43:33;;;;;;;4.42;3.40;;;;;;;4.62;69.87;101244.73;1622692;86;21036;-78
2021/04/02 00:46:03;;;;;;;3.45;3.05;;;;;;;4.57;69.71;101254.45;1632089;86;21131;-78
2021/04/02 00:48:30;;;;;;;3.62;3.30;;;;;;;4.49;69.76;101256.86;1632021;86;21162;-78
2021/04/02 00:51:01;;;;;;;;;;;;;;;4.46;69.85;101263.62;1632649;86;21408;-78
2021/04/02 00:53:43;;;;;;;2.83;2.62;;;;;;;4.40;69.99;101262.22;1619313;86;20275;-78
2021/04/02 00:56:11;;;;;;;5.20;3.40;;;;;;;4.36;69.96;101271.53;1598760;88;21169;-78
2021/04/02 00:58:38;;;;;;;5.03;3.00;;;;;;;4.32;70.00;101278.70;1617206;86;21182;-78
2021/04/02 01:01:06;;;;;;;;;;;;;;;4.29;69.98;101285.05;1607270;88;21139;-78
2021/04/02 01:03:33;;;;;;;3.27;3.08;;;;;;;4.24;70.02;101284.95;1630476;86;20288;-78
2021/04/02 01:06:02;;;;;;;;;;;;;;;4.18;69.86;101293.78;1607047;88;21157;-78
2021/04/02 01:08:35;;;;;;;4.60;3.37;;;;;;;4.09;69.95;101285.95;1620603;86;20220;-78
2021/04/02 01:11:04;;;;;;;5.85;3.62;;;;;;;4.04;69.92;101292.66;1605539;86;21007;-78
2021/04/02 01:13:44;;;;;;;3.62;3.33;;;;;;;4.00;70.01;101293.42;1628987;86;21123;-78
2021/04/02 01:16:31;;;;;;;3.45;2.95;;;;;;;3.97;70.02;101295.50;1613309;87;21139;-78
2021/04/02 01:19:25;;;;;;;3.77;3.47;;;;;;;3.96;70.09;101302.73;1624190;86;21140;-78
2021/04/02 01:22:01;;;;;;;3.90;3.50;;;;;;;3.89;69.97;101305.11;1634463;85;21150;-78
2021/04/02 01:25:08;;;;;;;4.08;3.50;;;;;;;3.82;70.06;101303.25;1637474;85;21222;-77
2021/04/02 01:28:04;;;;;;;4.35;3.27;;;;;;;3.79;70.15;101307.87;1638376;85;21497;-78
2021/04/02 01:30:31;;;;;;;4.03;3.42;;;;;;;3.76;70.09;101311.65;1622341;86;21283;-78
2021/04/02 01:33:10;;;;;;;3.27;3.00;;;;;;;3.71;70.12;101304.28;1634054;86;21182;-78
2021/04/02 01:35:39;;;;;;;3.35;3.05;;;;;;;3.69;70.19;101303.80;1646707;85;21227;-78
2021/04/02 01:38:16;;;;;;;3.90;3.10;;;;;;;3.71;70.28;101304.28;1645746;85;21709;-78
2021/04/02 01:40:48;;;;;;;5.70;3.33;;;;;;;3.72;70.36;101305.15;1627443;85;21190;-78
2021/04/02 01:43:25;;;;;;;5.40;3.47;;;;;;;3.72;70.30;101300.90;1633223;86;21207;-78
2021/04/02 01:45:53;;;;;;;4.75;3.50;;;;;;;3.68;70.33;101305.48;1630046;85;21233;-78
2021/04/02 01:48:22;;;;;;;7.70;4.33;;;;;;;3.60;70.27;101296.39;1643178;85;21197;-78
2021/04/02 01:50:52;;;;;;;6.67;3.83;;;;;;;3.57;70.39;101301.44;1627198;86;22285;-78
2021/04/02 01:53:23;;;;;;;4.40;3.90;;;;;;;3.57;70.38;101299.30;1627938;86;21523;-78
2021/04/02 01:55:53;;;;;;;5.35;3.50;;;;;;;3.56;70.35;101300.12;1617965;87;21241;-78
2021/04/02 01:58:21;;;;;;;3.52;3.22;;;;;;;3.51;70.37;101302.57;1646242;85;21281;-78
2021/04/02 02:00:52;;;;;;;4.30;3.60;;;;;;;3.49;70.24;101304.64;1647692;85;21154;-78
2021/04/02 02:03:19;;;;;;;4.67;3.92;;;;;;;3.44;70.39;101296.86;1624405;85;21012;-78
2021/04/02 02:05:48;;;;;;;4.60;3.52;;;;;;;3.49;70.57;101300.80;1647624;85;21156;-78
2021/04/02 02:08:23;;;;;;;4.92;3.50;;;;;;;3.49;70.44;101292.72;1647562;85;21209;-78
2021/04/02 02:11:10;;;;;;;5.15;3.87;;;;;;;3.49;70.52;101282.91;1643062;85;21001;-78
2021/04/02 02:13:43;;;;;;;4.80;3.98;;;;;;;3.50;70.54;101280.39;1649860;85;21129;-78
2021/04/02 02:16:12;;;;;;;9.30;3.60;;;;;;;3.49;70.64;101289.30;1617652;86;616430;-78
2021/04/02 02:18:40;;;;;;;3.83;3.30;;;;;;;3.50;70.62;101295.73;1663085;84;21127;-78
2021/04/02 02:21:15;;;;;;;6.22;3.77;;;;;;;3.49;70.62;101286.33;1663717;84;21254;-78
2021/04/02 02:23:48;;;;;;;4.20;3.47;;;;;;;3.49;70.61;101283.77;1655367;84;21161;-78
2021/04/02 02:26:15;;;;;;;4.30;3.70;;;;;;;3.47;70.64;101273.06;1651395;86;21165;-78
2021/04/02 02:28:42;;;;;;;4.05;3.37;;;;;;;3.43;70.62;101275.96;1651330;86;21133;-78
2021/04/02 02:31:16;;;;;;;4.75;3.58;;;;;;;3.41;70.52;101275.47;1664980;84;21153;-78
2021/04/02 02:33:42;;;;;;;4.12;3.70;;;;;;;3.37;70.59;101286.45;1646129;84;21035;-78
2021/04/02 02:36:09;;;;;;;5.50;3.47;;;;;;;3.31;70.53;101275.66;1654996;85;21149;-78
2021/04/02 02:38:36;;;;;;;;;;;;;;;3.22;70.59;101277.58;1654896;85;21182;-78
2021/04/02 02:41:03;;;;;;;5.17;3.65;;;;;;;3.18;70.67;101278.33;1660655;86;20273;-78
2021/04/02 02:43:31;;;;;;;13.25;10.20;;;;;;;3.13;70.76;101272.25;1663274;85;21122;-78
2021/04/02 02:45:58;;;;;;;7.65;6.30;;;;;;;3.13;70.80;101271.38;1658799;84;21685;-78
2021/04/02 02:48:25;;;;;;;49.18;27.82;;;;;;;3.11;70.69;101275.62;1664906;84;21170;-78
2021/04/02 02:50:54;;;;;;;;;;;;;;;3.06;70.75;101271.67;1675636;84;20988;-78
2021/04/02 02:53:24;;;;;;;4.85;4.35;;;;;;;3.04;70.89;101273.73;1651531;85;20193;-78
2021/04/02 02:55:52;;;;;;;6.80;5.60;;;;;;;2.97;70.81;101271.03;1665045;86;21134;-78
2021/04/02 02:58:24;;;;;;;8.48;6.08;;;;;;;2.92;70.69;101280.27;1649700;84;20985;-78
2021/04/02 03:00:54;;;;;;;10.10;4.90;;;;;;;2.85;70.74;101282.62;1660035;85;21011;-78
2021/04/02 03:03:22;;;;;;;6.58;5.08;;;;;;;2.81;70.84;101282.95;1640358;86;21162;-78
2021/04/02 03:05:51;;;;;;;6.17;5.58;;;;;;;2.74;70.76;101281.06;1665145;85;21515;-78
2021/04/02 03:08:21;;;;;;;6.08;4.00;;;;;;;2.66;70.84;101272.33;1649983;86;21166;-78
2021/04/02 03:10:51;;;;;;;4.22;3.47;;;;;;;2.61;70.76;101277.73;1652017;84;21128;-78
2021/04/02 03:13:19;;;;;;;;;;;;;;;2.54;70.98;101281.83;1667630;85;21161;-78
2021/04/02 03:15:47;;;;;;;21.73;13.43;;;;;;;2.50;71.06;101275.33;1660291;85;20265;-78
2021/04/02 03:18:26;;;;;;;24.60;15.08;;;;;;;2.43;70.89;101273.42;1659616;84;21153;-78
2021/04/02 03:20:54;;;;;;;13.03;9.23;;;;;;;2.38;71.16;101281.37;1650124;86;21134;-78
2021/04/02 03:23:21;;;;;;;7.53;5.08;;;;;;;2.36;71.03;101283.02;1650027;86;21126;-78
2021/04/02 03:25:49;;;;;;;5.55;3.80;;;;;;;2.28;71.02;101282.38;1656263;85;21028;-78
2021/04/02 03:28:18;;;;;;;5.12;4.00;;;;;;;2.28;71.10;101287.48;1649278;85;21003;-78
2021/04/02 03:30:45;;;;;;;4.60;3.50;;;;;;;2.24;71.00;101287.35;1651528;86;21035;-78
2021/04/02 03:33:24;;;;;;;3.27;2.98;;;;;;;2.15;70.95;101284.54;1647219;85;21126;-78
2021/04/02 03:35:57;;;;;;;4.50;3.65;;;;;;;2.06;71.05;101290.68;1659022;86;20995;-78
2021/04/02 03:38:26;;;;;;;6.37;3.92;;;;;;;1.97;71.15;101288.31;1654569;86;21188;-78
2021/04/02 03:40:59;;;;;;;4.40;3.45;;;;;;;1.99;71.30;101284.53;1647727;85;20987;-77
2021/04/02 03:43:28;;;;;;;4.87;4.03;;;;;;;2.00;71.29;101287.54;1659120;85;21173;-77
2021/04/02 03:45:56;;;;;;;5.00;3.62;;;;;;;2.00;71.33;101288.81;1658786;85;20987;-77
2021/04/02 03:48:25;;;;;;;6.75;4.10;;;;;;;2.05;71.58;101283.84;1658689;85;21460;-77
2021/04/02 03:50:55;;;;;;;3.30;3.00;;;;;;;2.10;71.43;101291.19;1659100;84;21547;-77
2021/04/02 03:53:29;;;;;;;4.60;3.75;;;;;;;2.10;71.49;101284.41;1645474;86;21148;-77
2021/04/02 03:55:59;;;;;;;4.30;3.20;;;;;;;2.12;71.37;101287.00;1658783;85;21424;-77
2021/04/02 03:58:26;;;;;;;5.03;3.70;;;;;;;2.13;71.51;101286.18;1657665;85;21019;-77
2021/04/02 04:01:09;;;;;;;6.12;3.90;;;;;;;2.13;71.46;101290.00;1639624;85;21145;-77
2021/04/02 04:03:44;;;;;;;4.30;3.90;;;;;;;2.11;71.42;101292.92;1642190;85;21474;-77
2021/04/02 04:06:15;;;;;;;4.87;3.92;;;;;;;2.03;71.34;101291.86;1649027;86;21158;-77
2021/04/02 04:08:45;;;;;;;4.78;3.65;;;;;;;1.99;71.46;101294.33;1647936;85;308709;-77
2021/04/02 04:11:15;;;;;;;5.80;3.80;;;;;;;1.99;71.49;101297.28;1653351;86;20956;-77
2021/04/02 04:13:45;;;;;;;6.35;4.25;;;;;;;2.00;71.55;101300.29;1640951;85;21016;-77
2021/04/02 04:16:16;;;;;;;5.97;3.55;;;;;;;2.01;71.65;101303.30;1638259;85;21437;-77
2021/04/02 04:18:47;;;;;;;4.30;3.90;;;;;;;1.96;71.40;101307.39;1656030;85;20998;-77
2021/04/02 04:21:15;;;;;;;5.22;3.55;;;;;;;1.94;71.66;101303.94;1649057;86;21153;-77
2021/04/02 04:23:43;;;;;;;3.90;3.52;;;;;;;1.94;71.59;101300.97;1648407;85;21784;-77
2021/04/02 04:26:11;;;;;;;5.70;3.22;;;;;;;1.98;71.69;101308.30;1652164;86;21910;-77
2021/04/02 04:28:49;;;;;;;4.70;3.52;;;;;;;1.99;71.65;101305.80;1658588;85;21443;-77
2021/04/02 04:31:20;;;;;;;3.80;3.50;;;;;;;2.01;71.72;101308.81;1658580;85;21429;-77
2021/04/02 04:33:55;;;;;;;6.80;3.75;;;;;;;2.01;71.64;101305.84;1652973;85;21540;-77
2021/04/02 04:36:23;;;;;;;5.92;3.87;;;;;;;1.99;71.67;101304.53;1655916;86;21617;-77
2021/04/02 04:38:53;;;;;;;4.10;3.50;;;;;;;1.98;71.76;101304.48;1648223;86;21952;-77
2021/04/02 04:41:23;;;;;;;3.75;3.37;;;;;;;1.97;71.76;101306.16;1654859;85;21335;-77
2021/04/02 04:43:51;;;;;;;4.20;3.80;;;;;;;2.01;71.80;101308.81;1661776;85;21401;-77
2021/04/02 04:46:17;;;;;;;5.30;3.80;;;;;;;2.01;71.87;101312.22;1670573;84;21669;-77
2021/04/02 04:48:47;;;;;;;4.35;3.42;;;;;;;2.05;71.85;101308.95;1648022;85;21459;-77
2021/04/02 04:51:19;;;;;;;6.53;3.83;;;;;;;1.97;71.60;101309.98;1662051;84;21552;-77
2021/04/02 04:53:50;;;;;;;4.78;3.52;;;;;;;1.97;71.98;101305.30;1665634;85;21490;-76
2021/04/02 04:56:39;;;;;;;24.35;12.60;;;;;;;2.04;71.99;101307.22;1656716;85;21130;-74
2021/04/02 04:59:08;;;;;;;5.12;4.45;;;;;;;2.08;72.11;101311.55;1644794;85;21488;-74
2021/04/02 05:01:41;;;;;;;5.25;4.65;;;;;;;2.18;72.12;101306.31;1648032;85;21873;-74
2021/04/02 05:04:13;;;;;;;6.80;4.73;;;;;;;2.22;72.03;101311.96;1668812;85;21642;-74
2021/04/02 05:06:41;;;;;;;5.30;4.80;;;;;;;2.24;71.95;101310.31;1653121;85;21575;-74
2021/04/02 05:09:08;;;;;;;8.43;5.97;;;;;;;2.22;71.93;101312.83;1647538;85;21664;-74
2021/04/02 05:11:50;;;;;;;9.00;6.67;;;;;;;2.20;71.81;101313.19;1660029;85;21655;-74
2021/04/02 05:14:17;;;;;;;7.92;7.03;;;;;;;2.08;71.75;101312.83;1656588;85;21511;-74
2021/04/02 05:16:45;;;;;;;7.58;6.87;;;;;;;2.08;71.93;101313.27;1644550;85;21247;-74
2021/04/02 05:19:20;;;;;;;8.00;7.20;;;;;;;2.10;72.14;101307.77;1662157;85;21244;-74
2021/04/02 05:21:47;;;;;;;8.20;6.33;;;;;;;2.21;72.35;101307.67;1652465;85;21930;-74
2021/04/02 05:24:13;;;;;;;6.50;5.75;;;;;;;2.30;72.25;101313.05;1658923;85;21515;-74
2021/04/02 05:26:52;;;;;;;6.62;5.42;;;;;;;2.33;72.06;101314.41;1658056;85;21185;-74
2021/04/02 05:29:37;;;;;;;6.33;5.67;;;;;;;2.30;72.08;101311.77;1663188;85;21223;-74
2021/04/02 05:32:04;;;;;;;7.53;4.62;;;;;;;2.38;72.36;101310.30;1669799;84;21213;-74
2021/04/02 05:34:31;;;;;;;6.53;4.62;;;;;;;2.51;72.44;101311.10;1661505;84;21210;-74
2021/04/02 05:36:57;;;;;;;6.00;5.40;;;;;;;2.44;71.83;101313.03;1659228;85;27381;-74
2021/04/02 05:39:24;;;;;;;5.90;4.28;;;;;;;2.34;71.90;101312.31;1657516;85;21204;-74
2021/04/02 05:42:08;;;;;;;4.15;3.83;;;;;;;2.30;71.92;101313.91;1657462;85;21188;-75
2021/04/02 05:44:38;;;;;;;9.00;4.72;;;;;;;2.24;71.96;101311.59;1655303;85;21646;-75
2021/04/02 05:47:26;;;;;;;6.87;4.80;;;;;;;2.28;72.33;101305.76;1656622;85;21188;-74
2021/04/02 05:50:12;;;;;;;5.10;4.17;;;;;;;2.40;72.40;101306.52;1662252;85;21125;-74
2021/04/02 05:53:04;;;;;;;5.53;4.03;;;;;;;2.47;72.26;101304.19;1650818;86;21135;-74
2021/04/02 05:55:42;;;;;;;4.55;4.10;;;;;;;2.52;72.16;101303.90;1662652;85;21439;-74
2021/04/02 05:58:12;;;;;;;4.92;3.60;;;;;;;2.47;71.98;101302.91;1658483;85;20976;-74
2021/04/02 06:00:44;;;;;;;6.33;4.78;;;;;;;2.45;72.09;101303.27;1662243;85;21154;-74
2021/04/02 06:03:11;;;;;;;4.20;3.80;;;;;;;2.51;72.35;101298.34;1652024;86;21782;-74
2021/04/02 06:05:37;;;;;;;3.72;3.42;;;;;;;2.69;72.57;101303.05;1658664;85;21540;-74
2021/04/02 06:08:24;;;;;;;5.92;3.40;;;;;;;2.92;72.46;101299.83;1657659;85;21158;-74
2021/04/02 06:11:09;;;;;;;4.60;3.52;;;;;;;3.07;72.33;101288.73;1655150;85;22124;-75
2021/04/02 06:13:54;;;;;;;4.60;3.73;;;;;;;3.34;72.59;101287.24;1653634;86;21230;-77
2021/04/02 06:16:50;;;;;;;3.65;3.27;;;;;;;3.68;72.83;101284.17;1657021;85;21095;-77
2021/04/02 06:19:35;;;;;;;5.17;3.47;;;;;;;4.20;72.84;101282.30;1652035;85;21204;-76
2021/04/02 06:22:20;;;;;;;3.45;2.90;;;;;;;4.87;73.05;101275.47;1655766;85;21230;-76
2021/04/02 06:25:07;;;;;;;3.47;2.92;;;;;;;5.33;72.65;101280.92;1657288;84;21270;-76
2021/04/02 06:27:53;;;;;;;;;;;;;;;6.08;72.83;101278.60;1655866;85;21537;-76
2021/04/02 06:30:41;;;;;;;5.72;3.10;;;;;;;6.72;72.60;101284.47;1656925;85;20984;-76
2021/04/02 06:33:33;;;;;;;11.45;7.90;;;;;;;7.35;72.05;101278.14;1648332;85;21229;-77
2021/04/02 06:36:22;;;;;;;5.87;3.67;;;;;;;7.91;72.18;101283.22;1657355;85;21515;-78
2021/04/02 06:39:07;;;;;;;3.62;3.02;;;;;;;8.53;71.75;101283.06;1647223;85;21221;-78
2021/04/02 06:41:54;;;;;;;3.77;3.37;;;;;;;9.06;71.73;101283.16;1656635;85;21242;-78
2021/04/02 06:44:39;;;;;;;4.92;3.17;;;;;;;9.57;71.41;101276.23;1660529;85;21543;-78
2021/04/02 06:47:40;;;;;;;5.62;4.20;;;;;;;9.94;71.03;101272.70;1660226;85;21133;-78
2021/04/02 06:50:27;;;;;;;6.78;5.53;;;;;;;10.28;70.66;101271.32;1659274;85;21030;-78
2021/04/02 06:53:13;;;;;;;3.77;3.40;;;;;;;10.36;70.23;101272.58;1659165;85;21148;-78
2021/04/02 06:55:59;;;;;;;3.72;3.08;;;;;;;10.28;69.77;101267.45;1660068;85;21132;-78
2021/04/02 06:58:45;;;;;;;3.15;2.70;;;;;;;10.32;70.15;101276.05;1659658;85;21157;-78
2021/04/02 07:01:32;;;;;;;4.60;3.15;;;;;;;10.45;69.95;101271.22;1652386;85;21131;-78
2021/04/02 07:04:20;;;;;;;5.90;3.02;;;;;;;10.53;69.80;101267.72;1660166;85;21015;-78
2021/04/02 07:07:06;;;;;;;3.47;2.58;;;;;;;10.57;69.62;101262.96;1650098;85;21149;-78
2021/04/02 07:09:56;;;;;;;4.53;3.05;;;;;;;10.64;69.62;101259.91;1650125;85;21173;-78
2021/04/02 07:12:45;;;;;;;2.85;2.65;;;;;;;10.61;69.36;101262.08;1653913;85;21170;-78
2021/04/02 07:15:33;;;;;;;2.33;2.12;;;;;;;10.69;69.44;101260.73;1652340;85;21122;-78
2021/04/02 07:18:19;;;;;;;3.12;2.87;;;;;;;10.77;69.15;101259.40;1652707;85;21035;-78
2021/04/02 07:24:36;;;;;;;3.15;2.50;;;;;;;10.73;69.06;101255.11;1688535;83;21179;-73
2021/04/02 07:27:22;;;;;;;3.02;2.75;;;;;;;10.90;69.27;101251.55;1694452;83;21116;-77
2021/04/02 07:30:10;;;;;;;3.22;2.37;;;;;;;11.00;68.98;101253.60;1694495;83;21441;-74
2021/04/02 07:33:02;;;;;;;3.85;2.30;;;;;;;11.07;69.02;101248.80;1673352;83;21188;-74
2021/04/02 07:35:59;;;;;;;2.77;2.42;;;;;;;11.10;68.81;101250.51;1693033;83;21151;-74
2021/04/02 07:38:54;;;;;;;;;;;;;;;11.10;68.82;101244.89;1636090;84;21164;-75
2021/04/02 07:41:48;;;;;;;4.47;2.40;;;;;;;11.21;68.24;101253.44;1652203;85;20247;-78
2021/04/02 07:44:37;;;;;;;3.00;2.40;;;;;;;11.23;68.44;101252.98;1623507;86;21129;-78
2021/04/02 07:47:24;;;;;;;2.30;2.10;;;;;;;11.38;68.58;101252.44;1636923;86;21498;-76
2021/04/02 07:50:09;;;;;;;5.55;2.22;;;;;;;11.56;68.50;101252.23;1663348;81;133401;-77
2021/04/02 07:52:53;;;;;;;3.30;2.70;;;;;;;11.72;68.29;101250.34;1724778;81;21214;-77
2021/04/02 07:55:19;;;;;;;4.03;2.55;;;;;;;11.80;68.30;101250.72;1726666;81;21249;-76
2021/04/02 07:58:02;;;;;;;3.37;2.45;;;;;;;11.98;68.29;101239.27;1726564;81;21209;-76
2021/04/02 08:00:35;;;;;;;8.58;5.05;;;;;;;12.00;67.57;101247.88;1712963;82;21202;-77
2021/04/02 08:03:14;;;;;;;3.12;2.80;;;;;;;11.86;67.87;101249.36;1726897;81;21201;-77
2021/04/02 08:06:00;;;;;;;2.75;2.55;;;;;;;11.91;67.91;101241.09;1725021;81;21173;-76
2021/04/02 08:08:27;;;;;;;2.40;2.20;;;;;;;12.02;68.00;101237.49;1726371;81;21186;-76
2021/04/02 08:11:33;;;;;;;2.67;2.47;;;;;;;12.14;67.82;101240.80;1723470;81;21177;-76
2021/04/02 08:14:12;;;;;;;2.87;2.58;;;;;;;12.24;67.44;101236.35;1711267;82;21242;-76
2021/04/02 08:16:54;;;;;;;2.80;2.40;;;;;;;12.30;67.22;101228.50;1722710;81;21129;-77
2021/04/02 08:19:32;;;;;;;3.75;2.58;;;;;;;12.51;67.35;101227.31;1713247;82;21128;-77
2021/04/02 08:22:06;;;;;;;3.50;3.12;;;;;;;12.63;67.02;101232.34;1726555;81;21157;-76
2021/04/02 08:24:39;;;;;;;3.45;3.08;;;;;;;12.63;67.40;101227.14;1700428;83;21163;-76
2021/04/02 08:27:07;;;;;;;2.92;2.62;;;;;;;12.52;67.51;101220.81;1720408;82;21113;-77
2021/04/02 08:29:35;;;;;;;3.80;3.10;;;;;;;12.30;67.35;101223.75;1720184;82;21173;-78
2021/04/02 08:32:09;;;;;;;3.55;3.25;;;;;;;12.08;67.05;101222.72;1718696;82;21094;-77
2021/04/02 08:34:37;;;;;;;3.10;2.75;;;;;;;11.95;67.12;101226.37;1718062;82;21138;-77
2021/04/02 08:37:10;;;;;;;3.27;2.87;;;;;;;11.81;66.90;101230.41;1714641;83;21115;-77
2021/04/02 08:39:37;;;;;;;3.25;2.77;;;;;;;11.68;67.17;101227.94;1720696;82;21126;-77
2021/04/02 08:42:11;;;;;;;2.35;2.15;;;;;;;11.66;66.83;101234.43;1712431;83;21145;-76
2021/04/02 08:44:41;;;;;;;2.65;2.45;;;;;;;11.58;66.64;101228.47;1719185;82;21138;-76
2021/04/02 08:47:15;;;;;;;1.85;1.67;;;;;;;11.51;66.47;101229.41;1708491;82;21147;-76
2021/04/02 08:49:54;;;;;;;3.45;2.65;;;;;;;11.43;66.15;101238.58;1719317;82;21119;-76
2021/04/02 08:52:26;;;;;;;2.98;1.98;;;;;;;10.90;65.59;101235.16;1719541;82;21121;-77
2021/04/02 08:55:04;;;;;;;1.62;1.35;;;;;;;10.81;66.05;101233.50;1686485;83;21179;-74
2021/04/02 08:57:37;;;;;;;1.85;1.10;;;;;;;10.87;65.94;101228.28;1711690;83;21119;-74
2021/04/02 09:00:08;;;;;;;2.10;1.52;;;;;;;10.99;65.92;101226.44;1718265;82;21097;-74
2021/04/02 09:02:37;;;;;;;2.67;2.10;;;;;;;11.19;65.72;101230.59;1700382;83;21163;-74
2021/04/02 09:05:06;;;;;;;2.87;2.55;;;;;;;11.18;65.52;101231.89;1720232;82;21114;-78
2021/04/02 09:07:42;;;;;;;4.08;3.67;;;;;;;11.04;65.55;101217.77;1697988;83;21135;-75
2021/04/02 09:10:16;;;;;;;7.12;5.50;;;;;;;10.91;65.27;101217.05;1702520;83;21144;-75
2021/04/02 09:12:51;;;;;;;6.28;5.62;;;;;;;10.56;65.12;101216.42;1699390;82;21127;-75
2021/04/02 09:15:29;;;;;;;9.13;6.37;;;;;;;10.22;65.04;101215.78;1712557;81;21099;-75
2021/04/02 09:18:18;;;;;;;8.50;7.30;;;;;;;10.12;65.50;101212.34;1703137;83;21132;-75
2021/04/02 09:20:46;;;;;;;6.33;5.65;;;;;;;10.12;65.38;101207.61;1721051;82;21145;-75
2021/04/02 09:23:13;;;;;;;6.03;4.70;;;;;;;10.10;65.39;101206.33;1708576;83;21126;-75
2021/04/02 09:25:51;;;;;;;4.30;3.90;;;;;;;10.03;64.86;101199.89;1720559;82;21332;-75
2021/04/02 09:28:25;;;;;;;5.37;3.67;;;;;;;9.88;64.75;101199.52;1712607;82;21413;-75
2021/04/02 09:31:15;;;;;;;3.98;3.10;;;;;;;9.80;64.85;101192.27;1717011;82;21328;-75
2021/04/02 09:33:57;;;;;;;4.53;3.30;;;;;;;9.78;64.75;101187.11;1725181;81;21170;-75
2021/04/02 09:36:27;;;;;;;4.47;3.33;;;;;;;9.72;64.26;101184.97;1728965;81;21142;-75
2021/04/02 09:39:22;;;;;;;4.80;2.72;;;;;;;9.49;64.39;101176.00;1719785;81;21134;-75
2021/04/02 09:41:55;;;;;;;5.95;2.35;;;;;;;9.46;64.59;101182.03;1677963;83;21154;-75
2021/04/02 09:44:28;;;;;;;2.03;1.57;;;;;;;9.32;64.24;101173.48;1727025;81;21428;-75
2021/04/02 09:47:12;;;;;;;1.62;1.52;;;;;;;9.32;64.46;101165.74;1715008;82;21142;-75
2021/04/02 09:49:39;;;;;;;1.60;1.30;;;;;;;9.38;64.33;101167.42;1728313;81;21109;-75
2021/04/02 09:52:07;;;;;;;1.57;1.27;;;;;;;9.39;64.18;101166.13;1722450;81;21137;-75
2021/04/02 09:54:35;;;;;;;1.35;1.05;;;;;;;9.46;64.37;101164.39;1727998;81;21125;-75
2021/04/02 09:57:09;;;;;;;2.55;1.55;;;;;;;9.39;63.71;101157.52;1736166;81;21094;-75
2021/04/02 09:59:36;;;;;;;2.42;1.60;;;;;;;9.36;64.18;101151.94;1686838;83;21167;-76
2021/04/02 10:02:03;;;;;;;;;;;;;;;9.46;64.03;101151.48;1730943;81;20995;-76
2021/04/02 10:04:35;;;;;;;1.22;0.88;;;;;;;9.34;63.04;101144.66;1725645;81;20251;-76
2021/04/02 10:07:01;;;;;;;1.50;1.10;;;;;;;9.25;63.49;101149.84;1713945;82;20933;-76
2021/04/02 10:09:41;;;;;;;3.40;1.37;;;;;;;9.25;63.59;101140.38;1697119;81;21110;-76
2021/04/02 10:12:09;;;;;;;1.22;1.12;;;;;;;9.22;63.21;101145.55;1727181;81;21129;-75
2021/04/02 10:14:44;;;;;;;2.55;1.10;;;;;;;9.20;63.43;101142.54;1711284;82;21404;-76
2021/04/02 10:17:13;;;;;;;0.90;0.82;;;;;;;9.29;63.52;101139.52;1736076;81;21431;-76
2021/04/02 10:19:50;;;;;;;1.10;1.00;;;;;;;9.42;63.51;101132.56;1720529;82;21118;-76
2021/04/02 10:22:16;;;;;;;1.90;1.35;;;;;;;9.51;63.18;101130.39;1723912;81;21132;-75
2021/04/02 10:24:42;;;;;;;2.72;1.55;;;;;;;9.57;63.27;101133.81;1718910;81;20987;-75
2021/04/02 10:27:10;;;;;;;2.77;1.35;;;;;;;9.55;63.14;101130.38;1720301;82;21118;-75
2021/04/02 10:29:36;;;;;;;2.42;1.57;;;;;;;9.66;63.30;101123.88;1701509;83;21152;-75
2021/04/02 10:32:02;;;;;;;2.72;2.05;;;;;;;9.81;63.36;101121.66;1720421;82;21195;-75
2021/04/02 10:34:29;;;;;;;3.42;3.02;;;;;;;9.93;63.11;101118.55;1718384;82;21199;-75
2021/04/02 10:36:56;;;;;;;2.00;1.52;;;;;;;9.96;62.97;101120.27;1701887;83;21147;-75
2021/04/02 10:39:22;;;;;;;5.03;1.77;;;;;;;10.02;62.98;101116.36;1709204;82;21501;-75
2021/04/02 10:42:08;;;;;;;3.10;1.95;;;;;;;10.03;62.80;101114.20;1718859;82;21459;-75
2021/04/02 10:44:53;;;;;;;1.87;1.20;;;;;;;10.04;62.73;101114.63;1710573;82;21543;-75
2021/04/02 10:47:38;;;;;;;1.80;1.70;;;;;;;9.84;62.50;101110.03;1708688;82;21242;-75
2021/04/02 10:50:25;;;;;;;2.12;1.92;;;;;;;9.84;62.73;101105.72;1713395;83;21194;-75
2021/04/02 10:53:10;;;;;;;2.45;2.17;;;;;;;9.93;62.58;101104.34;1673757;83;21608;-75
2021/04/02 10:56:00;;;;;;;3.83;2.25;;;;;;;9.89;62.30;101097.91;1718067;82;21217;-75
2021/04/02 10:58:42;;;;;;;3.83;2.37;;;;;;;9.83;62.63;101092.38;1697015;82;21187;-76
2021/04/02 11:01:27;;;;;;;2.80;2.52;;;;;;;9.86;62.66;101088.48;1714545;82;21213;-76
2021/04/02 11:04:12;;;;;;;2.75;1.95;;;;;;;9.96;62.55;101092.70;1666737;83;21223;-76
2021/04/02 11:06:57;;;;;;;4.75;2.12;;;;;;;10.05;62.48;101085.77;1711198;82;21218;-75
2021/04/02 11:09:43;;;;;;;4.10;2.47;;;;;;;10.10;62.43;101082.72;1668602;83;21229;-75
2021/04/02 11:12:09;;;;;;;2.12;1.92;;;;;;;10.13;62.37;101084.00;1710915;83;21774;-75
2021/04/02 11:14:36;;;;;;;2.30;2.05;;;;;;;10.20;62.44;101074.94;1686978;83;27463;-75
2021/04/02 11:17:02;;;;;;;2.12;1.92;;;;;;;10.27;62.16;101076.61;1713049;83;21640;-75
2021/04/02 11:19:34;;;;;;;2.45;2.22;;;;;;;10.31;62.17;101074.86;1711368;83;21686;-75
2021/04/02 11:22:01;;;;;;;2.40;2.12;;;;;;;10.38;62.17;101075.23;1712268;83;21214;-75
2021/04/02 11:24:27;;;;;;;2.02;1.87;;;;;;;10.34;61.99;101074.84;1713339;82;21651;-76
2021/04/02 11:26:54;;;;;;;2.15;1.65;;;;;;;10.40;62.25;101070.87;1733594;82;22199;-75
2021/04/02 11:29:21;;;;;;;2.60;1.55;;;;;;;10.48;61.99;101075.55;1719765;82;21421;-75
2021/04/02 11:31:47;;;;;;;1.55;1.45;;;;;;;10.45;61.84;101070.41;1721510;80;615750;-76
2021/04/02 11:34:13;;;;;;;2.22;1.67;;;;;;;10.44;61.65;101062.23;1731853;82;21103;-76
2021/04/02 11:36:40;;;;;;;1.42;1.25;;;;;;;10.37;61.65;101066.20;1734769;82;21125;-75
2021/04/02 11:39:07;;;;;;;3.27;1.40;;;;;;;10.31;61.43;101071.42;1735182;82;21819;-75
2021/04/02 11:41:33;;;;;;;4.65;1.55;;;;;;;10.09;61.45;101053.87;1715999;82;21991;-75
2021/04/02 11:44:02;;;;;;;1.52;0.90;;;;;;;10.10;61.77;101061.63;1716303;82;21520;-75
2021/04/02 11:46:36;;;;;;;2.00;1.80;;;;;;;10.15;61.66;101051.25;1734875;82;21422;-76
2021/04/02 11:49:03;;;;;;;2.80;1.85;;;;;;;10.17;61.64;101050.81;1717266;82;20973;-77
2021/04/02 11:51:30;;;;;;;1.65;1.35;;;;;;;10.30;61.88;101049.88;1728197;82;21493;-77
2021/04/02 11:53:56;;;;;;;1.70;1.32;;;;;;;10.35;61.27;101054.58;1733336;82;21360;-77
2021/04/02 11:56:22;;;;;;;1.47;1.37;;;;;;;10.27;61.45;101052.48;1715932;82;20988;-77
2021/04/02 11:58:49;;;;;;;3.92;1.87;;;;;;;10.23;61.07;101049.50;1733016;82;21949;-77
2021/04/02 12:01:21;;;;;;;1.55;1.27;;;;;;;10.08;61.23;101047.85;1709923;82;21485;-77
2021/04/02 12:03:48;;;;;;;2.50;1.45;;;;;;;10.14;61.43;101043.94;1740036;82;21030;-77
2021/04/02 12:06:14;;;;;;;1.32;1.20;;;;;;;10.11;61.11;101047.83;1719723;83;21754;-77
2021/04/02 12:08:52;;;;;;;1.45;1.10;;;;;;;10.03;61.02;101037.13;1712520;82;21441;-77